Barber, North Carolina
Current Conditions -  °F | °C
As of 8:15 PM on Tuesday 21 Oct 2014 (Local Time) from KRUQ Reporting Station
Scattered Clouds Scattered Clouds  
Wind Chill: 60°   Ceiling: Unl
Heat Index: 60°   Visibility: 10mi
Dew Point: 40°   Wind: 10mph
Humidity: 48%   Direction: 340°NNW
Pressure: 29.95"   Gusts: 16mph
Location:  35.7427°N, 80.712°W
Report Text: KRUQ 220015Z AUTO 34009G14KT 10SM SCT075 16/05 A2995 RMK AO2 T01550046
Loading
Personal Weather Stations






























Interactive Weather Map
Tropical Storm Tracking
New forecast layout! Learn more

10-Day Weather Forecast

Advertisements
Track Severe Weather on mobile